Time;durP1;ratioP1;P1;durP2;ratioP2;P2;SDS_P1;SDS_P2;PMS_P1;PMS_P2;Temp;Humidity;BMP_temperature;BMP_pressure;BME280_temperature;BME280_humidity;BME280_pressure;Samples;Min_cycle;Max_cycle;Signal;HPM_P1;HPM_P2
2022/12/20 00:00:44;;;;;;;10.50;4.65;;;8.80;99.90;;;;;;6157640;23;20437;-96
2022/12/20 00:03:10;;;;;;;14.70;5.03;;;8.90;99.90;;;;;;6158160;23;20017;-96
2022/12/20 00:05:37;;;;;;;9.75;5.38;;;8.80;99.90;;;;;;6160867;23;20017;-96
2022/12/20 00:08:03;;;;;;;10.82;4.88;;;8.20;99.90;;;;;;6162696;23;20036;-96
2022/12/20 00:10:37;;;;;;;13.60;5.03;;;8.80;99.90;;;;;;6188755;23;20024;-95
2022/12/20 00:13:03;;;;;;;;;;;8.70;99.90;;;;;;6164950;23;20025;-96
2022/12/20 00:15:32;;;;;;;11.77;5.15;;;8.60;99.90;;;;;;6172527;23;19923;-94
2022/12/20 00:17:58;;;;;;;13.02;5.22;;;8.60;99.90;;;;;;6193939;23;20020;-95
2022/12/20 00:20:25;;;;;;;8.45;4.70;;;8.70;99.90;;;;;;6199732;23;20016;-96
2022/12/20 00:22:51;;;;;;;10.95;4.70;;;8.60;99.90;;;;;;6195798;23;20234;-95
2022/12/20 00:25:19;;;;;;;8.30;4.53;;;9.00;99.90;;;;;;6197367;23;20020;-96
2022/12/20 00:27:45;;;;;;;10.15;4.75;;;8.60;99.90;;;;;;6194331;23;20067;-96
2022/12/20 00:30:11;;;;;;;8.85;4.78;;;8.60;99.90;;;;;;6198965;23;20100;-96
2022/12/20 00:32:37;;;;;;;8.15;4.28;;;8.60;99.90;;;;;;6195830;23;20020;-96
2022/12/20 00:35:04;;;;;;;10.43;4.65;;;8.80;99.90;;;;;;6192883;23;20093;-95
2022/12/20 00:37:29;;;;;;;12.57;4.50;;;8.60;99.90;;;;;;6194977;23;20063;-96
2022/12/20 00:39:55;;;;;;;9.88;4.05;;;8.70;99.90;;;;;;6197926;23;20042;-96
2022/12/20 00:42:21;;;;;;;7.28;3.80;;;8.40;99.90;;;;;;6203764;23;20020;-96
2022/12/20 00:44:47;;;;;;;7.90;4.13;;;8.10;99.90;;;;;;6202420;23;20376;-96
2022/12/20 00:47:13;;;;;;;9.73;4.65;;;8.50;99.90;;;;;;6200094;23;20020;-96
2022/12/20 00:49:40;;;;;;;10.80;4.10;;;8.50;99.90;;;;;;6179610;23;20016;-96
2022/12/20 00:52:06;;;;;;;10.88;4.03;;;8.70;99.90;;;;;;6223716;23;20091;-95
2022/12/20 00:54:32;;;;;;;9.57;3.97;;;8.40;99.90;;;;;;6203343;23;20012;-96
2022/12/20 00:57:03;;;;;;;10.90;4.35;;;8.50;99.90;;;;;;6204808;23;20055;-96
2022/12/20 00:59:28;;;;;;;9.80;3.72;;;8.60;99.90;;;;;;6202054;23;20044;-96
2022/12/20 01:01:55;;;;;;;8.13;4.15;;;8.30;99.90;;;;;;6223489;23;20031;-95
2022/12/20 01:04:20;;;;;;;7.55;4.10;;;8.60;99.90;;;;;;6197581;23;20016;-94
2022/12/20 01:06:46;;;;;;;7.15;3.88;;;8.60;99.90;;;;;;6197543;23;20020;-96
2022/12/20 01:09:12;;;;;;;8.13;4.32;;;8.60;99.90;;;;;;6196645;23;20008;-95
2022/12/20 01:11:38;;;;;;;7.57;4.00;;;8.80;99.90;;;;;;6201267;23;20027;-96
2022/12/20 01:14:09;;;;;;;8.25;3.50;;;8.70;99.90;;;;;;6203606;23;20016;-96
2022/12/20 01:16:41;;;;;;;9.23;4.17;;;8.80;99.90;;;;;;6205614;23;20051;-96
2022/12/20 01:19:08;;;;;;;11.55;4.15;;;8.80;99.90;;;;;;6202819;23;20247;-96
2022/12/20 01:21:34;;;;;;;10.20;3.92;;;8.80;99.90;;;;;;6202830;23;20020;-95
2022/12/20 01:23:59;;;;;;;6.75;4.05;;;8.80;99.90;;;;;;6199578;23;20459;-96
2022/12/20 01:26:28;;;;;;;8.43;3.70;;;8.90;99.90;;;;;;6197137;23;20008;-95
2022/12/20 01:28:57;;;;;;;6.20;3.67;;;8.90;99.90;;;;;;6197684;23;20028;-95
2022/12/20 01:31:23;;;;;;;8.65;3.53;;;8.90;99.90;;;;;;6196954;23;20115;-96
2022/12/20 01:33:51;;;;;;;10.88;3.45;;;8.90;99.90;;;;;;6198645;23;20016;-96
2022/12/20 01:36:24;;;;;;;11.10;3.88;;;8.90;99.90;;;;;;6197333;23;20008;-95
2022/12/20 01:38:50;;;;;;;6.93;4.00;;;8.90;99.90;;;;;;6201740;23;20024;-96
2022/12/20 01:41:21;;;;;;;6.03;3.63;;;8.80;99.90;;;;;;6197987;23;20054;-96
2022/12/20 01:43:59;;;;;;;6.82;3.13;;;8.90;99.90;;;;;;6202033;23;20024;-95
2022/12/20 01:46:27;;;;;;;5.80;3.03;;;8.80;99.90;;;;;;6227166;23;20023;-96
2022/12/20 01:49:07;;;;;;;10.70;3.40;;;8.80;99.90;;;;;;6204800;23;20081;-96
2022/12/20 01:51:40;;;;;;;10.00;3.85;;;8.80;99.90;;;;;;6209931;23;20016;-96
2022/12/20 01:54:14;;;;;;;7.50;3.60;;;8.80;99.90;;;;;;6174746;23;20444;-96
2022/12/20 01:56:42;;;;;;;7.25;3.83;;;8.80;99.90;;;;;;6196877;23;20016;-96
2022/12/20 01:59:10;;;;;;;9.25;3.30;;;8.80;99.90;;;;;;6203316;23;20054;-96
2022/12/20 02:01:36;;;;;;;7.28;3.25;;;9.60;99.90;;;;;;6206368;23;20016;-96
2022/12/20 02:04:02;;;;;;;9.00;3.45;;;9.10;99.90;;;;;;6207623;23;20031;-96
2022/12/20 02:06:29;;;;;;;8.50;3.30;;;8.80;99.90;;;;;;6236567;23;20027;-96
2022/12/20 02:09:00;;;;;;;9.77;3.72;;;8.80;99.90;;;;;;6204073;23;20016;-96
2022/12/20 02:11:33;;;;;;;5.40;3.38;;;8.80;99.90;;;;;;6253454;23;20051;-96
2022/12/20 02:14:17;;;;;;;5.63;2.72;;;8.80;99.90;;;;;;6211176;23;20000;-96
2022/12/20 02:17:17;;;;;;;8.18;3.47;;;8.40;99.90;;;;;;6212957;23;20024;-96
2022/12/20 02:20:23;;;;;;;6.53;3.65;;;8.40;99.90;;;;;;6112852;23;20038;-94
2022/12/20 02:23:15;;;;;;;6.78;3.30;;;8.80;99.90;;;;;;6056538;23;20022;-96
2022/12/20 02:26:08;;;;;;;8.23;3.50;;;8.80;99.90;;;;;;6170044;23;20033;-96
2022/12/20 02:29:10;;;;;;;10.02;3.33;;;8.80;99.90;;;;;;6171643;23;20064;-96
2022/12/20 02:31:56;;;;;;;9.75;3.45;;;8.90;99.90;;;;;;6143831;23;20002;-96
2022/12/20 02:34:24;;;;;;;7.50;3.28;;;8.80;99.90;;;;;;6143067;23;20056;-95
2022/12/20 02:36:52;;;;;;;4.88;3.08;;;8.90;99.90;;;;;;6120936;23;20021;-96
2022/12/20 02:39:21;;;;;;;5.65;3.35;;;8.80;99.90;;;;;;6122882;23;20028;-96
2022/12/20 02:41:53;;;;;;;9.68;3.78;;;8.90;99.90;;;;;;6146272;23;20021;-96
2022/12/20 02:47:16;;;;;;;6.32;3.42;;;8.80;99.90;;;;;;6145018;23;20033;-96
2022/12/20 02:50:03;;;;;;;7.45;3.30;;;8.30;99.90;;;;;;6148462;23;20033;-96
2022/12/20 02:52:30;;;;;;;7.32;3.53;;;8.80;99.90;;;;;;6122982;23;20040;-96
2022/12/20 02:54:58;;;;;;;6.57;3.03;;;8.90;99.90;;;;;;6118079;23;20073;-96
2022/12/20 02:57:42;;;;;;;6.35;2.97;;;8.50;99.90;;;;;;6144635;23;20029;-96
2022/12/20 03:00:14;;;;;;;6.78;3.03;;;8.90;99.90;;;;;;6108343;23;20092;-96
2022/12/20 03:05:27;;;;;;;6.72;3.28;;;8.90;99.90;;;;;;6121270;23;20017;-95
2022/12/20 03:07:53;;;;;;;8.82;3.42;;;8.90;99.90;;;;;;6105920;23;20052;-96
2022/12/20 03:10:20;;;;;;;9.40;3.65;;;8.90;99.90;;;;;;6105276;23;20017;-95
2022/12/20 03:12:46;;;;;;;7.22;3.60;;;8.90;99.90;;;;;;6103972;23;20022;-96
2022/12/20 03:18:03;;;;;;;9.38;3.40;;;8.80;99.90;;;;;;6172568;23;20033;-96
2022/12/20 03:20:31;;;;;;;8.52;3.53;;;8.50;99.90;;;;;;6167421;23;20028;-96
2022/12/20 03:22:56;;;;;;;6.72;3.90;;;8.90;99.90;;;;;;6159532;23;20017;-95
2022/12/20 03:25:22;;;;;;;11.57;3.72;;;8.80;99.90;;;;;;6161121;23;20056;-96
2022/12/20 03:27:52;;;;;;;9.15;3.80;;;8.90;99.90;;;;;;6168912;23;20021;-96
2022/12/20 03:30:23;;;;;;;7.70;3.75;;;8.80;99.90;;;;;;6199005;23;20031;-96
2022/12/20 03:32:56;;;;;;;9.30;3.90;;;8.80;99.90;;;;;;6195152;23;20029;-96
2022/12/20 03:35:43;;;;;;;8.73;3.95;;;8.70;99.90;;;;;;6194536;23;20029;-95
2022/12/20 03:38:11;;;;;;;9.55;3.85;;;8.90;99.90;;;;;;6177366;23;20053;-96
2022/12/20 03:40:39;;;;;;;8.27;4.25;;;8.70;99.90;;;;;;6177068;23;20020;-96
2022/12/20 03:43:05;;;;;;;11.50;3.75;;;8.80;99.90;;;;;;6143625;23;20025;-96
2022/12/20 03:45:32;;;;;;;9.25;3.60;;;8.70;99.90;;;;;;6173352;23;20064;-96
2022/12/20 03:47:57;;;;;;;7.22;3.80;;;8.80;99.90;;;;;;6169857;23;20064;-96
2022/12/20 03:50:25;;;;;;;7.60;3.67;;;8.80;99.90;;;;;;6173977;23;20021;-96
2022/12/20 03:52:52;;;;;;;7.75;3.72;;;8.70;99.90;;;;;;6197379;23;20017;-96
2022/12/20 03:55:18;;;;;;;8.52;4.32;;;8.90;99.90;;;;;;6165861;23;20017;-96
2022/12/20 03:57:44;;;;;;;7.20;3.88;;;8.80;99.90;;;;;;6165739;23;20067;-96
2022/12/20 04:00:12;;;;;;;9.10;3.67;;;8.70;99.90;;;;;;6167060;23;20473;-96
2022/12/20 04:02:39;;;;;;;7.25;3.72;;;8.90;99.90;;;;;;6175789;23;20061;-96
2022/12/20 04:05:06;;;;;;;10.75;3.67;;;8.60;99.90;;;;;;6201639;23;20076;-96
2022/12/20 04:07:35;;;;;;;7.75;4.07;;;8.70;99.90;;;;;;6174184;23;20422;-96
2022/12/20 04:10:01;;;;;;;7.88;3.70;;;8.70;99.90;;;;;;6177257;23;20017;-96
2022/12/20 04:12:27;;;;;;;8.35;4.03;;;8.80;99.90;;;;;;6176592;23;20040;-96
2022/12/20 04:14:58;;;;;;;9.60;3.90;;;8.80;99.90;;;;;;6172793;23;20032;-96
2022/12/20 04:17:28;;;;;;;8.15;3.75;;;9.00;99.90;;;;;;6198073;23;20027;-96
2022/12/20 04:19:56;;;;;;;8.85;3.63;;;8.90;99.90;;;;;;6204174;23;20032;-96
2022/12/20 04:22:26;;;;;;;8.38;3.75;;;9.00;99.90;;;;;;6227029;23;20020;-96
2022/12/20 04:24:54;;;;;;;9.32;3.90;;;8.90;99.90;;;;;;6202410;23;20020;-96
2022/12/20 04:27:48;;;;;;;6.20;3.88;;;8.90;99.90;;;;;;6152474;23;20020;-96
2022/12/20 04:30:14;;;;;;;12.23;4.00;;;9.00;99.90;;;;;;6222403;23;20031;-96
2022/12/20 04:32:56;;;;;;;6.53;3.95;;;9.00;99.90;;;;;;6230357;23;20314;-96
2022/12/20 04:35:23;;;;;;;8.63;4.45;;;9.00;99.90;;;;;;6202651;23;20017;-96
2022/12/20 04:37:49;;;;;;;8.60;4.07;;;9.00;99.90;;;;;;6207863;23;20095;-96
2022/12/20 04:40:15;;;;;;;8.13;4.13;;;8.90;99.90;;;;;;6183380;23;20020;-96
2022/12/20 04:42:41;;;;;;;10.35;4.68;;;9.00;99.90;;;;;;6205312;23;20043;-96
2022/12/20 04:45:35;;;;;;;10.27;4.20;;;8.90;99.90;;;;;;6213275;23;20080;-96
2022/12/20 04:48:04;;;;;;;10.05;4.80;;;9.10;99.90;;;;;;6210957;23;20040;-96
2022/12/20 04:50:32;;;;;;;8.30;4.40;;;9.00;99.90;;;;;;6228863;23;20005;-96
2022/12/20 04:55:52;;;;;;;6.57;4.35;;;9.10;99.90;;;;;;6234153;23;20024;-96
2022/12/20 04:58:18;;;;;;;7.97;4.35;;;8.90;99.90;;;;;;6195205;23;20056;-95
2022/12/20 05:00:44;;;;;;;10.88;5.00;;;9.10;99.90;;;;;;6195481;23;20028;-95
2022/12/20 05:03:11;;;;;;;8.07;4.45;;;9.20;99.90;;;;;;6198223;23;20052;-96
2022/12/20 05:05:40;;;;;;;9.00;4.47;;;9.10;99.90;;;;;;6199105;23;20020;-96
2022/12/20 05:08:06;;;;;;;5.93;3.80;;;9.30;99.90;;;;;;6194028;23;20023;-96
2022/12/20 05:10:32;;;;;;;10.52;4.50;;;9.30;99.90;;;;;;6196324;23;20073;-96
2022/12/20 05:13:05;;;;;;;9.20;4.47;;;9.10;99.90;;;;;;6225068;23;20022;-96
2022/12/20 05:15:31;;;;;;;8.63;4.43;;;9.20;99.90;;;;;;6206882;23;20013;-96
2022/12/20 05:17:58;;;;;;;11.23;4.60;;;9.40;99.90;;;;;;6201596;23;20024;-96
2022/12/20 05:20:26;;;;;;;7.45;4.20;;;9.30;99.90;;;;;;6200331;23;20016;-96
2022/12/20 05:28:37;;;;;;;9.77;3.95;;;8.90;99.90;;;;;;6227690;23;20026;-96
2022/12/20 05:31:04;;;;;;;8.65;3.90;;;9.10;99.90;;;;;;6203191;23;20012;-96
2022/12/20 05:33:53;;;;;;;9.75;4.35;;;9.20;99.90;;;;;;6211033;23;20016;-96
2022/12/20 05:36:40;;;;;;;9.15;3.63;;;9.20;99.90;;;;;;6232578;23;20038;-96
2022/12/20 05:39:06;;;;;;;7.45;4.10;;;9.40;99.90;;;;;;6206304;23;20016;-95
2022/12/20 05:41:33;;;;;;;6.38;3.88;;;9.50;99.90;;;;;;6209446;23;20050;-96
2022/12/20 05:43:58;;;;;;;7.57;3.70;;;9.40;99.90;;;;;;6202597;23;20039;-96
2022/12/20 05:46:25;;;;;;;7.13;3.83;;;9.40;99.90;;;;;;6202891;23;20012;-95
2022/12/20 05:48:51;;;;;;;11.77;4.22;;;9.60;99.90;;;;;;6193100;23;20024;-96
2022/12/20 05:51:17;;;;;;;8.52;3.80;;;9.40;99.90;;;;;;6199924;23;20056;-96
2022/12/20 05:53:46;;;;;;;6.85;3.65;;;9.40;99.90;;;;;;6206599;23;20038;-96
2022/12/20 05:56:20;;;;;;;8.48;4.60;;;9.60;99.90;;;;;;6190154;23;20072;-96
2022/12/20 05:58:46;;;;;;;5.85;3.35;;;9.50;99.90;;;;;;6230139;23;20008;-96
2022/12/20 06:01:12;;;;;;;5.80;3.45;;;9.50;99.90;;;;;;6194510;23;20027;-96
2022/12/20 06:03:42;;;;;;;6.18;3.20;;;9.60;99.90;;;;;;6203770;23;20437;-96
2022/12/20 06:06:09;;;;;;;6.72;3.67;;;9.40;99.90;;;;;;6203132;23;20024;-96
2022/12/20 06:08:34;;;;;;;5.70;3.30;;;9.50;99.90;;;;;;6200040;23;20042;-96
2022/12/20 06:11:03;;;;;;;9.43;3.92;;;10.30;99.90;;;;;;6201998;23;20016;-96
2022/12/20 06:13:29;;;;;;;9.27;3.83;;;9.60;99.90;;;;;;6209705;23;20022;-96
2022/12/20 06:15:55;;;;;;;5.60;3.13;;;9.60;99.90;;;;;;6195151;23;20173;-96
2022/12/20 06:18:24;;;;;;;6.53;3.25;;;9.50;99.90;;;;;;6203105;23;20016;-96
2022/12/20 06:21:00;;;;;;;7.07;3.33;;;9.60;99.90;;;;;;6207358;23;20016;-96
2022/12/20 06:23:26;;;;;;;8.82;3.72;;;9.60;99.90;;;;;;6208623;23;20044;-96
2022/12/20 06:25:58;;;;;;;5.93;3.25;;;9.60;99.90;;;;;;6206678;23;20039;-96
2022/12/20 06:28:24;;;;;;;7.68;3.25;;;9.50;99.90;;;;;;6202397;23;20051;-96
2022/12/20 06:30:53;;;;;;;7.57;3.67;;;9.50;99.90;;;;;;6199186;23;20459;-96
2022/12/20 06:33:19;;;;;;;8.57;3.13;;;9.70;99.90;;;;;;6197535;23;20046;-96
2022/12/20 06:35:45;;;;;;;6.38;3.75;;;9.50;99.90;;;;;;6203794;23;20023;-96
2022/12/20 06:38:11;;;;;;;8.43;3.30;;;9.70;99.90;;;;;;6203653;23;20016;-96
2022/12/20 06:40:37;;;;;;;7.10;3.30;;;9.60;99.90;;;;;;6198498;23;20012;-96
2022/12/20 06:43:03;;;;;;;5.38;3.20;;;9.80;99.90;;;;;;6201505;23;20035;-96
2022/12/20 06:45:29;;;;;;;6.25;3.15;;;9.80;99.90;;;;;;6197691;23;20016;-96
2022/12/20 06:47:56;;;;;;;5.75;3.50;;;9.90;99.90;;;;;;6202520;23;20052;-96
2022/12/20 06:50:23;;;;;;;9.80;3.78;;;9.70;99.90;;;;;;6201179;23;20031;-95
2022/12/20 06:52:57;;;;;;;8.90;3.65;;;9.70;99.90;;;;;;6201327;23;20015;-96
2022/12/20 06:55:26;;;;;;;8.10;3.45;;;9.70;99.90;;;;;;6198105;23;20020;-96
2022/12/20 06:57:54;;;;;;;6.18;3.38;;;9.80;99.90;;;;;;6175911;23;20067;-96
2022/12/20 07:00:20;;;;;;;8.85;3.35;;;9.80;99.90;;;;;;6200940;23;20012;-95
2022/12/20 07:02:46;;;;;;;8.82;3.33;;;9.80;99.90;;;;;;6191100;23;20020;-93
2022/12/20 07:05:11;;;;;;;5.05;3.05;;;9.90;99.90;;;;;;6193565;23;20018;-96
2022/12/20 07:07:37;;;;;;;8.30;3.60;;;9.80;99.90;;;;;;6196877;23;20131;-96
2022/12/20 07:10:04;;;;;;;6.28;3.97;;;10.40;99.90;;;;;;6198434;23;20185;-95
2022/12/20 07:12:29;;;;;;;7.00;4.18;;;9.80;99.90;;;;;;6195055;23;20460;-96
2022/12/20 07:14:55;;;;;;;6.43;4.00;;;9.90;99.90;;;;;;6205239;23;20016;-95
2022/12/20 07:17:21;;;;;;;10.98;4.88;;;9.70;99.90;;;;;;6195913;23;20104;-95
2022/12/20 07:19:46;;;;;;;8.77;4.55;;;9.60;99.90;;;;;;6193539;23;20059;-96
2022/12/20 07:22:12;;;;;;;7.03;4.70;;;9.80;99.90;;;;;;6193135;23;20047;-95
2022/12/20 07:24:38;;;;;;;7.90;4.93;;;9.60;99.90;;;;;;6196620;23;20142;-96
2022/12/20 07:27:10;;;;;;;9.63;5.25;;;9.60;99.90;;;;;;6203433;23;20029;-96
2022/12/20 07:29:39;;;;;;;8.80;4.97;;;9.50;99.90;;;;;;6191805;23;20017;-96
2022/12/20 07:32:07;;;;;;;8.95;5.28;;;9.70;99.90;;;;;;6195330;23;20433;-96
2022/12/20 07:34:35;;;;;;;8.98;5.68;;;9.60;99.90;;;;;;6188331;23;20017;-96
2022/12/20 07:37:11;;;;;;;11.60;6.38;;;9.70;99.90;;;;;;6205785;23;20020;-96
2022/12/20 07:39:41;;;;;;;9.10;5.88;;;9.70;99.90;;;;;;6200648;23;20020;-96
2022/12/20 07:42:08;;;;;;;9.00;5.80;;;9.60;99.90;;;;;;6220073;23;20143;-96
2022/12/20 07:44:34;;;;;;;10.35;6.38;;;9.50;99.90;;;;;;6194652;23;20021;-94
2022/12/20 07:47:00;;;;;;;8.25;5.82;;;9.60;99.90;;;;;;6192743;23;20021;-95
2022/12/20 07:49:29;;;;;;;11.75;5.93;;;9.60;99.90;;;;;;6196858;23;20016;-93
2022/12/20 07:51:58;;;;;;;10.77;6.28;;;9.70;99.90;;;;;;6187113;23;20437;-94
2022/12/20 07:54:32;;;;;;;8.80;6.47;;;9.50;99.90;;;;;;6187020;23;20012;-93
2022/12/20 07:57:02;;;;;;;13.13;6.45;;;9.60;99.90;;;;;;6186587;23;20021;-95
2022/12/20 07:59:36;;;;;;;11.20;6.28;;;9.80;99.90;;;;;;6185809;23;20047;-94
2022/12/20 08:02:03;;;;;;;12.15;6.90;;;9.70;99.90;;;;;;6190015;23;20028;-96
2022/12/20 08:04:29;;;;;;;9.27;6.28;;;9.80;99.90;;;;;;6190720;23;20016;-96
2022/12/20 08:06:58;;;;;;;8.95;6.97;;;10.00;99.90;;;;;;6192132;23;20021;-96
2022/12/20 08:09:31;;;;;;;10.43;7.00;;;9.70;99.90;;;;;;6217760;23;20020;-96
2022/12/20 08:11:58;;;;;;;9.18;5.80;;;9.70;99.90;;;;;;6199463;23;20044;-96
2022/12/20 08:14:26;;;;;;;10.75;6.68;;;9.60;99.90;;;;;;6228531;23;20017;-96
2022/12/20 08:16:53;;;;;;;8.20;5.65;;;9.90;99.90;;;;;;6166406;23;20017;-96
2022/12/20 08:19:22;;;;;;;10.80;6.85;;;9.90;99.90;;;;;;6190437;23;20021;-96
2022/12/20 08:21:49;;;;;;;9.90;5.93;;;9.80;99.90;;;;;;6166278;23;20458;-96
2022/12/20 08:24:24;;;;;;;11.77;5.75;;;9.90;99.90;;;;;;6166663;23;20021;-96
2022/12/20 08:26:50;;;;;;;14.95;5.70;;;9.80;99.90;;;;;;6159111;23;20020;-95
2022/12/20 08:29:18;;;;;;;8.82;4.93;;;10.00;99.90;;;;;;6158314;23;20024;-96
2022/12/20 08:31:44;;;;;;;11.07;4.85;;;10.00;99.90;;;;;;6158771;23;20104;-95
2022/12/20 08:34:11;;;;;;;10.25;4.88;;;10.00;99.90;;;;;;6162439;23;20013;-96
2022/12/20 08:36:37;;;;;;;7.13;4.28;;;9.90;99.90;;;;;;6165374;23;20052;-94
2022/12/20 08:39:04;;;;;;;7.70;4.38;;;10.00;99.90;;;;;;6161859;23;20505;-95
2022/12/20 08:41:33;;;;;;;9.63;4.38;;;10.00;99.90;;;;;;6170732;23;20083;-94
2022/12/20 08:43:59;;;;;;;7.30;4.10;;;9.90;99.90;;;;;;6159436;23;20021;-94
2022/12/20 08:46:25;;;;;;;8.77;4.13;;;10.00;99.90;;;;;;6157559;23;20017;-96
2022/12/20 08:48:51;;;;;;;9.38;4.10;;;10.00;99.90;;;;;;6164279;23;20024;-96
2022/12/20 08:51:17;;;;;;;9.48;4.03;;;10.00;99.90;;;;;;6159854;23;20013;-96
2022/12/20 08:53:43;;;;;;;6.93;3.58;;;10.00;99.90;;;;;;6165531;23;20454;-96
2022/12/20 08:56:12;;;;;;;9.60;4.07;;;10.10;99.90;;;;;;6172730;23;20013;-96
2022/12/20 08:58:39;;;;;;;6.95;3.30;;;10.10;99.90;;;;;;6165835;23;20452;-95
2022/12/20 09:01:08;;;;;;;8.40;3.25;;;10.10;99.90;;;;;;6161198;23;20068;-96
2022/12/20 09:03:35;;;;;;;6.55;2.80;;;10.10;99.90;;;;;;6162119;23;20103;-96
2022/12/20 09:06:12;;;;;;;7.65;3.22;;;10.10;99.90;;;;;;6160829;23;20051;-96
2022/12/20 09:08:39;;;;;;;9.98;3.28;;;10.10;99.90;;;;;;6162936;23;20477;-93
2022/12/20 09:11:14;;;;;;;9.48;3.55;;;10.10;99.90;;;;;;6157365;23;20115;-96
2022/12/20 09:13:44;;;;;;;6.80;3.40;;;10.10;99.90;;;;;;6161192;23;20021;-96
2022/12/20 09:16:12;;;;;;;8.68;2.92;;;10.10;99.90;;;;;;6178575;23;20028;-96
2022/12/20 09:18:38;;;;;;;7.20;3.05;;;10.20;99.90;;;;;;6223999;23;20544;-96
2022/12/20 09:21:06;;;;;;;5.50;2.58;;;10.20;99.90;;;;;;6194667;23;20087;-93
2022/12/20 09:23:33;;;;;;;5.25;3.05;;;10.20;99.90;;;;;;6188333;23;20463;-95
2022/12/20 09:26:03;;;;;;;8.55;3.30;;;10.20;99.90;;;;;;6194979;23;20511;-96
2022/12/20 09:28:30;;;;;;;7.20;3.00;;;10.20;99.90;;;;;;6197878;23;20096;-96
2022/12/20 09:30:58;;;;;;;7.00;3.05;;;10.30;99.90;;;;;;6205602;23;20013;-94
2022/12/20 09:33:28;;;;;;;9.15;2.90;;;10.40;99.90;;;;;;6202392;23;20028;-96
2022/12/20 09:35:58;;;;;;;7.68;2.65;;;10.40;99.90;;;;;;6179778;23;20021;-96
2022/12/20 09:38:28;;;;;;;11.32;2.80;;;10.50;99.90;;;;;;6234005;23;20751;-96
2022/12/20 09:41:06;;;;;;;10.90;3.00;;;10.40;99.90;;;;;;6234742;23;20034;-96
2022/12/20 09:43:36;;;;;;;5.78;2.55;;;10.40;99.90;;;;;;6205508;23;20016;-96
2022/12/20 09:46:14;;;;;;;6.88;2.80;;;10.40;99.90;;;;;;6201528;23;20020;-96
2022/12/20 09:48:49;;;;;;;6.38;2.70;;;10.50;99.90;;;;;;6199022;23;20029;-96
2022/12/20 09:51:39;;;;;;;7.68;3.03;;;10.50;99.90;;;;;;6203429;23;20051;-96
2022/12/20 09:54:11;;;;;;;8.88;2.83;;;10.60;99.90;;;;;;6193535;23;20468;-95
2022/12/20 09:56:58;;;;;;;7.15;2.90;;;10.60;99.90;;;;;;6204041;23;20055;-96
2022/12/20 09:59:24;;;;;;;7.18;2.40;;;10.60;99.90;;;;;;6206296;23;20024;-96
2022/12/20 10:01:54;;;;;;;4.78;2.35;;;10.60;99.90;;;;;;6175839;23;20013;-96
2022/12/20 10:04:34;;;;;;;7.75;2.50;;;10.60;99.90;;;;;;6202975;23;20044;-96
2022/12/20 10:07:50;;;;;;;9.18;2.70;;;10.70;99.90;;;;;;6204693;23;20023;-96
2022/12/20 10:10:47;;;;;;;5.32;2.90;;;10.60;99.90;;;;;;6223448;23;20021;-96
2022/12/20 10:13:51;;;;;;;9.40;3.15;;;10.70;99.90;;;;;;6204569;23;20027;-96
2022/12/20 10:16:32;;;;;;;4.63;2.25;;;10.40;99.90;;;;;;6227883;23;20004;-96
2022/12/20 10:19:11;;;;;;;6.95;2.70;;;10.70;99.90;;;;;;6190648;23;20479;-94
2022/12/20 10:21:56;;;;;;;7.28;2.50;;;10.70;99.90;;;;;;6187732;23;20019;-95
2022/12/20 10:24:37;;;;;;;4.22;2.30;;;10.60;99.90;;;;;;6190444;23;20112;-96
2022/12/20 10:27:17;;;;;;;8.63;2.50;;;10.60;99.90;;;;;;6186753;23;20043;-94
2022/12/20 10:29:45;;;;;;;4.10;2.00;;;10.60;99.90;;;;;;6186853;23;20234;-94
2022/12/20 10:32:14;;;;;;;5.55;2.33;;;10.60;99.90;;;;;;6190558;23;20017;-96
2022/12/20 10:34:50;;;;;;;5.40;2.47;;;10.60;99.90;;;;;;6189987;23;20548;-95
2022/12/20 10:37:17;;;;;;;5.88;2.50;;;10.60;99.90;;;;;;6195245;23;20118;-95
2022/12/20 10:39:46;;;;;;;6.70;2.50;;;10.70;99.90;;;;;;6188875;23;20392;-96
2022/12/20 10:42:32;;;;;;;9.13;2.28;;;10.60;99.90;;;;;;6194968;23;20016;-96
2022/12/20 10:45:00;;;;;;;4.75;2.38;;;10.50;99.90;;;;;;6202274;23;20074;-96
2022/12/20 10:47:34;;;;;;;6.82;2.72;;;10.60;99.90;;;;;;6197665;23;20390;-96
2022/12/20 10:50:16;;;;;;;7.40;2.45;;;10.70;99.90;;;;;;6196729;23;20460;-96
2022/12/20 10:52:44;;;;;;;6.75;2.65;;;10.60;99.90;;;;;;6191000;23;20075;-96
2022/12/20 10:55:32;;;;;;;9.45;2.45;;;10.60;99.90;;;;;;6193898;23;20095;-96
2022/12/20 10:58:04;;;;;;;6.50;2.40;;;10.60;99.90;;;;;;6192581;23;20020;-95
2022/12/20 11:00:31;;;;;;;7.70;2.42;;;10.90;99.90;;;;;;6196962;23;20021;-96
2022/12/20 11:03:17;;;;;;;5.03;2.75;;;10.70;99.90;;;;;;6190883;23;20021;-96
2022/12/20 11:05:58;;;;;;;4.80;2.22;;;10.80;99.90;;;;;;6186376;23;20055;-95
2022/12/20 11:08:26;;;;;;;4.40;2.38;;;10.90;99.90;;;;;;6186445;23;20031;-95
2022/12/20 11:11:10;;;;;;;8.40;2.63;;;10.80;99.90;;;;;;6185242;23;20068;-95
2022/12/20 11:13:36;;;;;;;7.05;2.33;;;10.80;99.90;;;;;;6191463;23;20086;-96
2022/12/20 11:16:03;;;;;;;5.57;2.58;;;10.70;99.90;;;;;;6224877;23;20024;-96
2022/12/20 11:18:28;;;;;;;7.13;2.55;;;10.80;99.90;;;;;;6195605;23;20042;-96
2022/12/20 11:21:20;;;;;;;3.75;2.42;;;10.70;99.90;;;;;;6201483;23;20020;-96
2022/12/20 11:24:19;;;;;;;7.45;3.00;;;10.70;99.90;;;;;;6174496;23;20027;-95
2022/12/20 11:27:11;;;;;;;7.38;3.10;;;10.60;99.90;;;;;;6196462;23;20066;-96
2022/12/20 11:29:48;;;;;;;;;;;10.60;99.90;;;;;;6198480;23;20072;-96
2022/12/20 11:32:20;;;;;;;5.78;2.88;;;10.50;99.90;;;;;;6195157;23;19922;-96
2022/12/20 11:35:06;;;;;;;5.35;2.85;;;10.50;99.90;;;;;;6197555;23;20465;-96
2022/12/20 11:37:45;;;;;;;8.00;2.80;;;10.50;99.90;;;;;;6196986;23;20016;-96
2022/12/20 11:40:19;;;;;;;5.07;2.95;;;10.40;99.90;;;;;;6201971;23;20008;-96
2022/12/20 11:43:00;;;;;;;8.18;3.08;;;10.40;99.90;;;;;;6207010;23;20027;-96
2022/12/20 11:45:41;;;;;;;5.22;2.70;;;10.50;99.90;;;;;;6202794;23;20016;-96
2022/12/20 11:48:33;;;;;;;6.90;2.63;;;10.40;99.90;;;;;;6199369;23;20059;-96
2022/12/20 11:51:03;;;;;;;;;;;10.00;99.90;;;;;;6177611;23;20016;-96
2022/12/20 11:53:48;;;;;;;8.15;2.92;;;10.70;99.90;;;;;;6202680;23;19915;-96
2022/12/20 11:56:29;;;;;;;6.97;2.78;;;10.30;99.90;;;;;;6198663;23;20457;-96
2022/12/20 11:59:06;;;;;;;7.63;3.20;;;9.70;99.90;;;;;;6196356;23;20017;-95
2022/12/20 12:01:40;;;;;;;7.55;3.10;;;10.40;99.90;;;;;;6191401;23;20046;-91
2022/12/20 12:04:24;;;;;;;6.22;3.30;;;10.30;99.90;;;;;;6189647;23;20014;-92
2022/12/20 12:06:54;;;;;;;5.45;2.60;;;10.40;99.90;;;;;;6190770;23;20016;-95
2022/12/20 12:09:39;;;;;;;7.15;3.30;;;10.30;99.90;;;;;;6216282;23;20054;-93
2022/12/20 12:12:23;;;;;;;7.20;3.03;;;10.30;99.90;;;;;;6190148;23;20020;-92
2022/12/20 12:15:21;;;;;;;5.90;3.17;;;10.30;99.90;;;;;;6190131;23;20012;-92
2022/12/20 12:18:02;;;;;;;12.27;3.95;;;10.20;99.90;;;;;;6189900;23;20496;-91
2022/12/20 12:20:47;;;;;;;6.72;3.25;;;10.20;99.90;;;;;;6190767;23;20024;-90
2022/12/20 12:23:21;;;;;;;7.75;3.50;;;10.30;99.90;;;;;;6190676;23;20344;-92
2022/12/20 12:25:47;;;;;;;9.10;3.90;;;10.20;99.90;;;;;;6190114;23;20020;-95
2022/12/20 12:28:16;;;;;;;8.10;3.80;;;10.30;99.90;;;;;;6190976;23;20024;-92
2022/12/20 12:30:54;;;;;;;7.22;3.85;;;10.10;99.90;;;;;;6192864;23;20017;-93
2022/12/20 12:33:27;;;;;;;6.75;3.88;;;10.10;99.90;;;;;;6193325;23;20016;-94
2022/12/20 12:36:09;;;;;;;8.65;4.35;;;10.30;99.90;;;;;;6190875;23;20078;-95
2022/12/20 12:38:54;;;;;;;9.55;4.50;;;10.10;99.90;;;;;;6191343;23;20020;-94
2022/12/20 12:41:43;;;;;;;8.25;4.30;;;10.20;99.90;;;;;;6215567;23;20020;-94
2022/12/20 12:44:38;;;;;;;9.90;5.00;;;10.20;99.90;;;;;;6216161;23;20020;-94
2022/12/20 12:47:16;;;;;;;8.65;4.65;;;10.20;99.90;;;;;;6192634;23;20098;-95
2022/12/20 12:49:46;;;;;;;8.32;4.60;;;10.10;99.90;;;;;;6193318;23;20020;-94
2022/12/20 12:52:28;;;;;;;9.43;4.38;;;10.20;99.90;;;;;;6193266;23;20069;-95
2022/12/20 12:54:54;;;;;;;9.43;4.68;;;10.20;99.90;;;;;;6192347;23;20020;-92
2022/12/20 12:57:20;;;;;;;10.25;4.43;;;10.20;99.90;;;;;;6192658;23;20016;-94
2022/12/20 12:59:48;;;;;;;10.57;4.63;;;10.10;99.90;;;;;;6192295;23;20016;-93
2022/12/20 13:02:14;;;;;;;6.85;4.43;;;10.10;99.90;;;;;;6194834;23;20020;-94
2022/12/20 13:05:05;;;;;;;8.07;4.90;;;10.10;99.90;;;;;;6193508;23;20020;-94
2022/12/20 13:07:31;;;;;;;9.70;4.95;;;10.10;99.90;;;;;;6195992;23;20016;-95
2022/12/20 13:09:59;;;;;;;7.47;4.70;;;10.10;99.90;;;;;;6196195;23;20042;-96
2022/12/20 13:12:37;;;;;;;10.02;4.97;;;10.00;99.90;;;;;;6196888;23;20313;-94
2022/12/20 13:15:22;;;;;;;8.32;5.13;;;10.00;99.90;;;;;;6192960;23;20020;-95
2022/12/20 13:17:55;;;;;;;9.20;5.07;;;10.00;99.90;;;;;;6192010;23;20425;-95
2022/12/20 13:20:27;;;;;;;8.32;5.32;;;10.00;99.90;;;;;;6195111;23;20133;-95
2022/12/20 13:23:09;;;;;;;8.68;4.82;;;10.20;99.90;;;;;;6194740;23;20449;-95
2022/12/20 13:25:40;;;;;;;10.32;5.07;;;10.00;99.90;;;;;;6197572;23;20030;-96
2022/12/20 13:28:15;;;;;;;8.30;5.30;;;10.10;99.90;;;;;;6195057;23;20020;-95
2022/12/20 13:30:42;;;;;;;9.98;5.65;;;10.00;99.90;;;;;;6196278;23;20520;-96
2022/12/20 13:33:36;;;;;;;10.32;5.13;;;10.10;99.90;;;;;;6201058;23;20020;-96